Terminal Aerodrome Forecast
Issued by NWS Bismarck, ND

Home | Current Version | Previous Version | Text Only | Print | Product List | Glossary Off
Versions: 1 2 3 4 5 6 7 8 9 10 11 12 13 14 15 16 17 18

000
FTUS43 KBIS 231700
TAFBIS
TAF
KBIS 231720Z 2318/2418 33014G22KT P6SM OVC014
     FM240300 31006KT P6SM OVC020
     FM240800 27005KT P6SM SCT020 SCT070=

USA.gov is the U.S. government's official web portal to all federal, state and local government web resources and services.